Whitehorse, Yukon Territory

12:54 PM PST on December 20, 2014 (GMT -0800)
Whitehorse International | Change Station
CLOSE
Current Station
Airport
Location: Whitehorse,
Elevation: 2316 ft
Nearby Weather Stations

Elev 2316 ft 60.71 °N, 135.07 °W | Updated 54 minutes ago

Mostly Cloudy
Mostly Cloudy
7 °F
Feels Like 0 °F
N
4
Wind Variable Wind from East

Today is forecast to be nearly the same temperature as yesterday.

Today
High -- | Low -- °F
--% Chance of Precip.
Yesterday
High -- | Low -- °F
Precip. -- in
10:09 AM 3:46 PM
Waning Crescent, 2% visible
Pressure 29.30 in
Visibility 40.0 miles
Clouds Scattered Clouds 3600 ft
Mostly Cloudy 15000 ft
Windchill 0 °F
Dew Point 1 °F
Humidity 79%
Rainfall 0.00 in
Snow Depth Not available.
UV 0 out of 12
Pollen Not available.
Air Quality Not available.
Flu Activity Not available.
METAR CYXY 202000Z 08003KT 050V170 40SM SCT036 BKN150 M14/M17 A2914 RMK SC3AC3 SLP922

More Conditions Fewer Conditions

Pressure 29.30 in
Visibility 40.0 miles
Clouds Scattered Clouds 3600 ft
Mostly Cloudy 15000 ft
Windchill 0 °F
Dew Point 1 °F
Humidity 79%
Rainfall 0.00 in
Snow Depth Not available.
UV 0 out of 12
Pollen Not available.
Air Quality Not available.
Flu Activity Not available.
METAR CYXY 202000Z 08003KT 050V170 40SM SCT036 BKN150 M14/M17 A2914 RMK SC3AC3 SLP922

More Conditions Fewer Conditions

10-Day Weather Forecast

Almanac

Astronomy

Dec. 20, 2014 Rise Set
Actual Time
Civil Twilight
Nautical Twilight
Astronomical Twilight
Moon
Length of Visible Light
Length of Day
Tomorrow will be .
, % of the Moon is Illuminated

Today's Extremes

Country Highs Country Lows

Community

WunderPhotos

Upload Photos

1,779,271 photos uploaded!

WunderBlogs® & News

Nearby

Air Quality

  Air Quality AQ Index Pollutant
Not available.

Snow Depth

Station Depth Elevation

Earthquake Activity

City Distance Mag. Time & Date
Minimum magnitude displayed is 2.5.

Coastal Water Temperatures

Place Temperature

Nearby Weather Stations